Time;durP1;ratioP1;P1;durP2;ratioP2;P2;SDS_P1;SDS_P2;PMS_P1;PMS_P2;Temp;Humidity;BMP_temperature;BMP_pressure;BME280_temperature;BME280_humidity;BME280_pressure;Samples;Min_cycle;Max_cycle;Signal;HPM_P1;HPM_P2
2023/05/03 00:00:44;;;;;;;9.02;3.40;;;5.40;99.90;;;;;;4975765;28;20050;-60
2023/05/03 00:03:12;;;;;;;10.13;3.55;;;5.30;99.90;;;;;;4993166;28;20038;-60
2023/05/03 00:05:40;;;;;;;6.18;3.22;;;5.30;99.90;;;;;;4993678;28;20046;-61
2023/05/03 00:08:07;;;;;;;6.72;3.17;;;5.30;99.90;;;;;;4992690;28;20046;-61
2023/05/03 00:10:34;;;;;;;4.95;3.10;;;5.30;99.90;;;;;;4993299;28;20046;-61
2023/05/03 00:13:01;;;;;;;5.53;3.08;;;5.30;99.90;;;;;;4993223;28;20053;-61
2023/05/03 00:15:28;;;;;;;6.75;3.45;;;5.30;99.90;;;;;;4990764;28;20498;-61
2023/05/03 00:17:55;;;;;;;6.38;3.15;;;5.30;99.90;;;;;;4976698;28;20500;-60
2023/05/03 00:20:22;;;;;;;7.47;3.70;;;5.40;99.90;;;;;;4991608;28;20056;-60
2023/05/03 00:22:50;;;;;;;9.10;3.45;;;5.40;99.90;;;;;;4992499;28;20054;-61
2023/05/03 00:25:17;;;;;;;10.13;3.38;;;5.50;99.90;;;;;;4975516;28;20065;-61
2023/05/03 00:27:44;;;;;;;5.47;2.95;;;5.60;99.90;;;;;;4992919;28;20124;-60
2023/05/03 00:30:11;;;;;;;4.88;3.00;;;5.70;99.90;;;;;;4992666;28;20042;-60
2023/05/03 00:32:38;;;;;;;5.30;3.22;;;5.70;99.90;;;;;;4992951;28;20101;-60
2023/05/03 00:35:06;;;;;;;4.03;2.92;;;5.80;99.90;;;;;;4993079;28;20042;-60
2023/05/03 00:37:33;;;;;;;6.55;3.17;;;5.90;99.90;;;;;;4992293;28;20491;-61
2023/05/03 00:40:01;;;;;;;5.68;3.25;;;6.00;99.90;;;;;;4992735;28;20104;-61
2023/05/03 00:42:28;;;;;;;6.15;2.97;;;6.10;99.90;;;;;;4992667;28;20574;-60
2023/05/03 00:44:55;;;;;;;3.65;2.83;;;6.10;99.90;;;;;;4974171;28;20042;-61
2023/05/03 00:47:22;;;;;;;4.72;2.97;;;6.20;99.90;;;;;;4974249;28;20097;-61
2023/05/03 00:49:49;;;;;;;6.43;3.13;;;6.20;99.90;;;;;;4990949;28;20050;-61
2023/05/03 00:52:16;;;;;;;6.50;2.92;;;6.30;99.90;;;;;;4992331;28;20047;-61
2023/05/03 00:54:43;;;;;;;5.20;3.00;;;6.30;99.90;;;;;;4992497;28;20134;-61
2023/05/03 00:57:11;;;;;;;5.55;3.45;;;6.40;99.90;;;;;;4974362;28;20066;-60
2023/05/03 00:59:38;;;;;;;5.50;2.67;;;6.40;99.90;;;;;;4992717;28;20054;-60
2023/05/03 01:02:05;;;;;;;4.63;2.88;;;6.50;99.90;;;;;;4974722;28;20570;-61
2023/05/03 01:04:32;;;;;;;5.35;2.80;;;6.60;99.90;;;;;;4991993;28;20116;-60
2023/05/03 01:07:09;;;;;;;5.25;2.80;;;6.60;99.90;;;;;;4992264;28;20081;-61
2023/05/03 01:09:43;;;;;;;3.80;2.75;;;6.60;99.90;;;;;;4992254;28;20043;-61
2023/05/03 01:12:23;;;;;;;7.13;3.05;;;6.70;99.90;;;;;;4990741;28;20561;-61
2023/05/03 01:14:58;;;;;;;;;;;6.70;99.90;;;;;;4975395;28;20455;-62
2023/05/03 01:17:29;;;;;;;4.45;2.63;;;6.80;99.90;;;;;;4975605;28;19977;-61
2023/05/03 01:20:09;;;;;;;4.47;2.60;;;6.80;99.90;;;;;;4990713;28;20096;-61
2023/05/03 01:22:42;;;;;;;4.32;3.47;;;6.80;99.90;;;;;;4991678;28;20816;-60
2023/05/03 01:25:12;;;;;;;7.40;3.28;;;6.80;99.90;;;;;;4991711;28;20403;-60
2023/05/03 01:27:40;;;;;;;5.32;3.10;;;6.80;99.90;;;;;;4991985;28;20042;-60
2023/05/03 01:30:09;;;;;;;5.30;2.92;;;6.80;99.90;;;;;;4973429;28;20051;-60
2023/05/03 01:32:46;;;;;;;6.20;3.20;;;6.70;99.90;;;;;;4972791;28;20487;-60
2023/05/03 01:35:20;;;;;;;3.30;2.35;;;6.70;99.90;;;;;;4991734;28;20051;-60
2023/05/03 01:37:49;;;;;;;8.95;2.90;;;6.60;99.90;;;;;;4974424;28;20113;-60
2023/05/03 01:40:19;;;;;;;5.35;2.90;;;6.60;99.90;;;;;;4973640;28;20046;-60
2023/05/03 01:42:46;;;;;;;5.30;2.77;;;6.50;99.90;;;;;;4991774;28;20074;-61
2023/05/03 01:45:13;;;;;;;4.90;3.13;;;6.50;99.90;;;;;;4955916;28;20058;-61
2023/05/03 01:47:40;;;;;;;5.60;2.90;;;6.50;99.90;;;;;;4973068;28;20466;-61
2023/05/03 01:50:08;;;;;;;4.07;2.92;;;6.50;99.90;;;;;;4973132;28;20562;-61
2023/05/03 01:52:35;;;;;;;6.28;2.70;;;6.50;99.90;;;;;;4973252;28;21289;-60
2023/05/03 01:55:02;;;;;;;5.65;2.88;;;6.50;99.90;;;;;;4972273;28;20070;-61
2023/05/03 01:57:30;;;;;;;6.22;2.90;;;6.40;99.90;;;;;;4974136;28;20058;-61
2023/05/03 01:59:57;;;;;;;4.10;2.72;;;6.50;99.90;;;;;;4990567;28;20049;-61
2023/05/03 02:02:24;;;;;;;4.35;2.75;;;6.40;99.90;;;;;;4983682;28;20039;-61
2023/05/03 02:04:51;;;;;;;8.32;2.90;;;6.40;99.90;;;;;;4991078;28;20054;-61
2023/05/03 02:07:18;;;;;;;5.53;2.80;;;6.40;99.90;;;;;;4990760;28;20494;-61
2023/05/03 02:09:45;;;;;;;3.38;2.67;;;6.30;99.90;;;;;;4973623;28;20058;-60
2023/05/03 02:12:12;;;;;;;4.90;2.88;;;6.20;99.90;;;;;;4990904;28;20109;-61
2023/05/03 02:14:40;;;;;;;4.28;3.05;;;6.20;99.90;;;;;;4990822;28;20393;-61
2023/05/03 02:17:08;;;;;;;6.15;2.78;;;6.20;99.90;;;;;;4971771;28;20573;-61
2023/05/03 02:19:35;;;;;;;5.28;2.97;;;6.10;99.90;;;;;;4972057;28;20050;-61
2023/05/03 02:22:02;;;;;;;5.60;2.70;;;6.00;99.90;;;;;;4973116;28;20054;-61
2023/05/03 02:24:30;;;;;;;8.10;2.70;;;6.00;99.90;;;;;;4973328;28;20387;-61
2023/05/03 02:26:56;;;;;;;5.43;2.50;;;6.00;99.90;;;;;;4990744;28;20046;-61
2023/05/03 02:29:23;;;;;;;5.60;2.80;;;5.90;99.90;;;;;;4990532;28;20054;-61
2023/05/03 02:31:52;;;;;;;5.10;2.30;;;5.90;99.90;;;;;;4973387;28;20112;-62
2023/05/03 02:34:18;;;;;;;3.55;2.50;;;5.90;99.90;;;;;;4973593;28;20059;-60
2023/05/03 02:36:45;;;;;;;5.68;2.63;;;5.90;99.90;;;;;;4972880;28;20062;-60
2023/05/03 02:39:12;;;;;;;5.20;2.75;;;5.90;99.90;;;;;;4973469;28;20116;-59
2023/05/03 02:41:39;;;;;;;4.22;2.88;;;5.90;99.90;;;;;;4973370;28;20455;-60
2023/05/03 02:44:06;;;;;;;3.58;2.75;;;5.90;99.90;;;;;;4990308;28;20044;-61
2023/05/03 02:46:33;;;;;;;5.45;2.78;;;5.90;99.90;;;;;;4990854;28;20049;-61
2023/05/03 02:49:01;;;;;;;3.58;2.55;;;5.90;99.90;;;;;;4990475;28;20042;-61
2023/05/03 02:51:28;;;;;;;5.53;2.50;;;5.90;99.90;;;;;;4972853;28;20086;-60
2023/05/03 02:53:55;;;;;;;3.80;2.63;;;6.80;99.90;;;;;;4973403;28;20104;-61
2023/05/03 02:56:24;;;;;;;4.88;2.42;;;5.90;99.90;;;;;;4988793;28;20387;-61
2023/05/03 02:58:51;;;;;;;3.70;2.33;;;5.90;99.90;;;;;;4971887;28;20058;-60
2023/05/03 03:01:18;;;;;;;6.50;2.85;;;5.90;99.90;;;;;;4972271;28;20165;-60
2023/05/03 03:03:45;;;;;;;3.22;2.40;;;5.90;99.90;;;;;;4971611;28;20047;-60
2023/05/03 03:06:13;;;;;;;3.53;2.50;;;6.00;99.90;;;;;;4972078;28;20062;-61
2023/05/03 03:08:40;;;;;;;3.83;2.45;;;6.00;99.90;;;;;;4972967;28;20054;-61
2023/05/03 03:11:07;;;;;;;4.68;2.72;;;6.00;99.90;;;;;;4972659;28;20050;-61
2023/05/03 03:13:38;;;;;;;5.13;2.55;;;6.00;99.90;;;;;;4993373;28;20054;-62
2023/05/03 03:16:06;;;;;;;6.55;2.65;;;6.00;99.90;;;;;;4958879;28;20078;-60
2023/05/03 03:18:34;;;;;;;3.17;2.13;;;6.10;99.90;;;;;;4958216;28;20057;-61
2023/05/03 03:21:02;;;;;;;3.50;2.45;;;6.10;99.90;;;;;;4992786;28;20052;-62
2023/05/03 03:23:30;;;;;;;3.30;2.10;;;6.10;99.90;;;;;;4993913;28;20069;-61
2023/05/03 03:25:57;;;;;;;8.57;2.63;;;6.10;99.90;;;;;;4993853;28;20082;-61
2023/05/03 03:28:24;;;;;;;4.82;2.33;;;6.20;99.90;;;;;;4994418;28;20469;-61
2023/05/03 03:30:51;;;;;;;4.65;2.45;;;6.10;99.90;;;;;;4994040;28;20827;-61
2023/05/03 03:33:18;;;;;;;4.35;2.28;;;6.10;99.90;;;;;;4993536;28;20062;-60
2023/05/03 03:35:45;;;;;;;3.35;2.47;;;6.10;99.90;;;;;;4993820;28;20441;-60
2023/05/03 03:38:12;;;;;;;3.33;2.40;;;6.10;99.90;;;;;;4994020;28;20047;-61
2023/05/03 03:40:40;;;;;;;4.68;2.50;;;6.00;99.90;;;;;;4993404;28;20046;-60
2023/05/03 03:43:07;;;;;;;3.58;2.20;;;6.00;99.90;;;;;;4977591;28;20062;-62
2023/05/03 03:45:34;;;;;;;3.97;2.85;;;6.00;99.90;;;;;;4975525;28;20051;-60
2023/05/03 03:48:01;;;;;;;3.42;2.30;;;6.00;99.90;;;;;;4974784;28;20058;-61
2023/05/03 03:50:28;;;;;;;6.20;2.33;;;6.00;99.90;;;;;;4991878;28;20054;-61
2023/05/03 03:52:54;;;;;;;6.13;2.33;;;5.90;99.90;;;;;;4993183;28;20053;-60
2023/05/03 03:55:21;;;;;;;4.25;2.20;;;5.90;99.90;;;;;;4993725;28;20054;-60
2023/05/03 03:57:50;;;;;;;4.05;2.65;;;5.80;99.90;;;;;;4993422;28;20654;-61
2023/05/03 04:00:17;;;;;;;3.90;2.28;;;5.70;99.90;;;;;;4993274;28;20050;-61
2023/05/03 04:02:44;;;;;;;7.13;2.92;;;5.70;99.90;;;;;;4976158;28;20038;-61
2023/05/03 04:05:11;;;;;;;4.55;2.20;;;5.70;99.90;;;;;;4993601;28;20125;-60
2023/05/03 04:07:38;;;;;;;4.68;2.60;;;5.70;99.90;;;;;;4975389;28;20053;-61
2023/05/03 04:10:06;;;;;;;4.45;2.22;;;5.60;99.90;;;;;;4975966;28;20054;-61
2023/05/03 04:12:33;;;;;;;7.25;2.42;;;5.60;99.90;;;;;;4976054;28;20050;-61
2023/05/03 04:15:01;;;;;;;4.13;2.55;;;5.60;99.90;;;;;;4975360;28;20114;-61
2023/05/03 04:17:28;;;;;;;4.60;2.22;;;5.60;99.90;;;;;;4975986;28;20108;-61
2023/05/03 04:19:55;;;;;;;7.22;2.83;;;5.50;99.90;;;;;;4973914;28;20081;-60
2023/05/03 04:22:22;;;;;;;6.30;2.65;;;5.60;99.90;;;;;;4992478;28;20054;-61
2023/05/03 04:24:49;;;;;;;4.15;2.55;;;5.60;99.90;;;;;;4992345;28;20097;-60
2023/05/03 04:27:17;;;;;;;5.22;2.50;;;5.70;99.90;;;;;;4975726;28;20062;-61
2023/05/03 04:29:44;;;;;;;4.10;2.60;;;5.70;99.90;;;;;;4992285;28;20135;-61
2023/05/03 04:32:13;;;;;;;4.85;2.28;;;5.80;99.90;;;;;;4975645;28;20134;-60
2023/05/03 04:34:41;;;;;;;5.20;2.47;;;5.90;99.90;;;;;;4975496;28;20058;-62
2023/05/03 04:37:08;;;;;;;2.97;1.83;;;6.00;99.90;;;;;;4992475;28;20582;-61
2023/05/03 04:39:35;;;;;;;7.88;1.90;;;6.10;99.90;;;;;;4992628;28;20048;-61
2023/05/03 04:42:02;;;;;;;3.50;2.00;;;6.20;99.90;;;;;;4992336;28;20054;-61
2023/05/03 04:44:29;;;;;;;3.80;1.75;;;6.30;99.90;;;;;;4975161;28;20046;-61
2023/05/03 04:46:56;;;;;;;2.30;1.50;;;6.40;99.90;;;;;;4992911;28;20458;-61
2023/05/03 04:49:24;;;;;;;3.85;1.90;;;6.50;99.90;;;;;;4992165;28;20799;-61
2023/05/03 04:51:51;;;;;;;4.88;2.10;;;6.60;99.90;;;;;;4975338;28;20411;-61
2023/05/03 04:54:18;;;;;;;5.70;1.80;;;6.60;99.90;;;;;;4992480;28;20458;-61
2023/05/03 04:56:45;;;;;;;4.68;2.20;;;6.70;99.90;;;;;;4975701;28;20557;-62
2023/05/03 04:59:12;;;;;;;5.75;1.98;;;6.80;99.90;;;;;;4958872;28;20065;-62
2023/05/03 05:01:39;;;;;;;3.88;2.08;;;6.90;99.90;;;;;;4974314;28;20058;-62
2023/05/03 05:04:05;;;;;;;4.63;1.83;;;7.00;99.90;;;;;;4990199;28;20509;-62
2023/05/03 05:06:34;;;;;;;4.40;1.50;;;7.10;99.90;;;;;;4992429;28;20060;-60
2023/05/03 05:09:01;;;;;;;4.18;1.80;;;7.10;99.90;;;;;;4992562;28;20105;-60
2023/05/03 05:11:28;;;;;;;3.63;1.65;;;7.20;99.90;;;;;;4974298;28;20102;-60
2023/05/03 05:13:55;;;;;;;4.32;1.63;;;7.30;99.90;;;;;;4992159;28;20446;-60
2023/05/03 05:16:22;;;;;;;4.68;2.10;;;7.30;99.90;;;;;;4992099;28;20553;-62
2023/05/03 05:18:49;;;;;;;8.55;3.22;;;7.40;99.90;;;;;;4974449;28;20053;-60
2023/05/03 05:21:16;;;;;;;3.15;1.75;;;7.50;99.90;;;;;;4992014;28;20230;-60
2023/05/03 05:23:44;;;;;;;4.82;2.08;;;7.60;99.90;;;;;;4974452;28;20058;-60
2023/05/03 05:26:11;;;;;;;3.47;1.88;;;7.70;99.90;;;;;;4973912;28;20046;-60
2023/05/03 05:28:38;;;;;;;3.45;1.42;;;7.70;99.90;;;;;;4971909;28;20570;-60
2023/05/03 05:31:05;;;;;;;6.25;2.10;;;7.80;99.90;;;;;;4989990;28;20457;-60
2023/05/03 05:33:31;;;;;;;6.28;1.90;;;7.80;99.90;;;;;;4958075;28;20051;-60
2023/05/03 05:35:59;;;;;;;3.50;2.10;;;7.90;99.90;;;;;;4989141;28;20482;-61
2023/05/03 05:38:26;;;;;;;2.67;1.60;;;8.00;99.90;;;;;;4973825;28;20058;-61
2023/05/03 05:40:55;;;;;;;3.92;1.50;;;8.00;99.90;;;;;;4991794;28;20054;-62
2023/05/03 05:43:21;;;;;;;4.93;1.33;;;8.10;99.90;;;;;;4991489;28;20526;-60
2023/05/03 05:45:48;;;;;;;3.88;1.50;;;8.20;99.90;;;;;;4991090;28;20054;-62
2023/05/03 05:48:15;;;;;;;3.13;1.23;;;8.20;99.90;;;;;;4991612;28;20085;-61
2023/05/03 05:50:42;;;;;;;5.15;1.83;;;8.30;99.90;;;;;;4991504;28;20054;-60
2023/05/03 05:53:09;;;;;;;4.43;1.58;;;8.40;99.90;;;;;;4973615;28;20100;-59
2023/05/03 05:55:36;;;;;;;4.10;1.38;;;8.50;99.90;;;;;;4974194;28;20054;-61
2023/05/03 05:58:04;;;;;;;5.63;1.70;;;8.60;99.90;;;;;;4974072;28;20050;-60
2023/05/03 06:00:31;;;;;;;3.03;1.58;;;8.70;99.90;;;;;;4972621;28;20054;-61
2023/05/03 06:02:58;;;;;;;3.42;1.35;;;8.70;99.90;;;;;;4989463;28;20054;-61
2023/05/03 06:05:25;;;;;;;5.65;1.50;;;8.90;99.90;;;;;;4974056;28;20062;-61
2023/05/03 06:07:52;;;;;;;2.75;1.20;;;8.90;99.90;;;;;;4973446;28;20108;-61
2023/05/03 06:10:19;;;;;;;3.60;1.50;;;9.00;99.90;;;;;;4991434;28;20458;-60
2023/05/03 06:12:46;;;;;;;4.15;1.25;;;9.10;99.90;;;;;;4973961;28;20085;-60
2023/05/03 06:15:14;;;;;;;2.70;1.08;;;9.10;99.90;;;;;;4973322;28;20057;-62
2023/05/03 06:17:41;;;;;;;3.53;1.48;;;9.10;99.90;;;;;;4991003;28;20483;-61
2023/05/03 06:20:10;;;;;;;3.22;1.55;;;9.20;99.90;;;;;;4990777;28;20573;-62
2023/05/03 06:22:37;;;;;;;4.60;1.33;;;9.30;99.90;;;;;;4973108;28;20062;-60
2023/05/03 06:25:06;;;;;;;4.68;1.70;;;9.30;99.90;;;;;;4990942;28;20130;-61
2023/05/03 06:27:33;;;;;;;3.10;1.20;;;9.40;99.90;;;;;;4990193;28;20046;-60
2023/05/03 06:30:00;;;;;;;4.85;1.48;;;9.50;99.90;;;;;;4973542;28;20057;-61
2023/05/03 06:32:28;;;;;;;3.60;1.70;;;9.60;99.90;;;;;;4974800;28;20050;-60
2023/05/03 06:34:58;;;;;;;2.20;1.20;;;9.60;99.90;;;;;;4971154;28;20051;-60
2023/05/03 06:37:26;;;;;;;4.50;1.17;;;9.60;99.90;;;;;;4973534;28;20054;-60
2023/05/03 06:39:52;;;;;;;2.88;1.45;;;9.60;99.90;;;;;;4990491;28;20507;-60
2023/05/03 06:42:19;;;;;;;2.88;1.10;;;9.60;99.90;;;;;;4989876;28;20503;-61
2023/05/03 06:44:47;;;;;;;3.05;1.17;;;9.70;99.90;;;;;;4973112;28;20486;-61
2023/05/03 06:47:14;;;;;;;4.38;1.02;;;9.90;99.90;;;;;;4972825;28;20133;-60
2023/05/03 06:49:42;;;;;;;4.80;1.40;;;10.40;99.90;;;;;;4987878;28;20053;-61
2023/05/03 06:52:09;;;;;;;4.13;1.30;;;10.60;99.90;;;;;;4966410;28;20430;-60
2023/05/03 06:54:36;;;;;;;4.55;1.25;;;10.50;99.90;;;;;;4979025;28;20051;-61
2023/05/03 06:57:04;;;;;;;3.83;0.95;;;10.60;99.90;;;;;;4971386;28;20077;-61
2023/05/03 06:59:31;;;;;;;7.35;1.70;;;10.70;99.90;;;;;;4981717;28;20574;-61
2023/05/03 07:01:57;;;;;;;2.42;1.05;;;11.30;99.90;;;;;;4966598;28;20057;-61
2023/05/03 07:04:24;;;;;;;8.43;1.20;;;10.70;99.90;;;;;;4975773;28;20042;-62
2023/05/03 07:06:53;;;;;;;4.93;1.13;;;10.60;99.90;;;;;;4975129;28;20113;-60
2023/05/03 07:09:19;;;;;;;4.25;1.73;;;10.70;99.90;;;;;;4962240;28;20058;-60
2023/05/03 07:11:49;;;;;;;3.58;1.20;;;10.70;99.90;;;;;;4976011;28;20507;-61
2023/05/03 07:14:16;;;;;;;3.83;1.48;;;10.70;99.90;;;;;;4978521;28;20050;-61
2023/05/03 07:16:43;;;;;;;2.10;1.20;;;10.70;99.90;;;;;;4955996;28;20055;-61
2023/05/03 07:19:10;;;;;;;12.05;1.40;;;10.80;99.90;;;;;;4979634;28;20050;-61
2023/05/03 07:21:37;;;;;;;3.70;1.25;;;10.80;99.90;;;;;;4957211;28;20061;-61
2023/05/03 07:24:06;;;;;;;4.22;1.20;;;10.80;99.90;;;;;;4977110;28;20062;-61
2023/05/03 07:26:33;;;;;;;1.90;0.90;;;10.90;99.90;;;;;;4974057;28;20078;-62
2023/05/03 07:29:00;;;;;;;6.53;1.13;;;11.10;99.90;;;;;;4974828;28;20381;-61
2023/05/03 07:31:27;;;;;;;4.22;1.05;;;11.30;99.90;;;;;;4957008;28;20487;-61
2023/05/03 07:33:54;;;;;;;2.80;0.90;;;11.30;99.90;;;;;;4959312;28;20050;-61
2023/05/03 07:36:21;;;;;;;4.53;1.05;;;11.30;99.90;;;;;;4974683;28;20052;-61
2023/05/03 07:38:48;;;;;;;1.60;1.10;;;11.30;99.90;;;;;;4959954;28;20053;-60
2023/05/03 07:41:16;;;;;;;2.28;0.90;;;11.20;99.90;;;;;;4958219;28;20093;-61
2023/05/03 07:43:43;;;;;;;3.10;1.15;;;11.30;99.90;;;;;;4954240;28;20141;-61
2023/05/03 07:46:10;;;;;;;2.83;1.00;;;11.40;99.90;;;;;;4974349;28;20046;-61
2023/05/03 07:48:37;;;;;;;3.95;1.25;;;11.50;99.90;;;;;;4977489;28;20491;-62
2023/05/03 07:51:05;;;;;;;4.10;1.48;;;11.50;99.90;;;;;;4957521;28;20506;-61
2023/05/03 07:53:34;;;;;;;4.40;1.50;;;11.50;99.90;;;;;;4972638;28;20109;-60
2023/05/03 07:56:01;;;;;;;2.95;1.20;;;11.50;99.90;;;;;;4972926;28;20054;-60
2023/05/03 07:58:29;;;;;;;3.40;1.40;;;11.60;99.90;;;;;;4958970;28;20109;-61
2023/05/03 08:00:56;;;;;;;4.85;1.15;;;11.50;99.90;;;;;;4990019;28;20053;-61
2023/05/03 08:03:23;;;;;;;4.95;1.38;;;11.70;99.90;;;;;;4978657;28;20525;-61
2023/05/03 08:05:50;;;;;;;7.38;1.15;;;11.60;99.90;;;;;;4964276;28;20125;-62
2023/05/03 08:08:18;;;;;;;2.53;1.38;;;11.60;99.90;;;;;;4960242;28;20054;-61
2023/05/03 08:10:45;;;;;;;4.82;1.20;;;11.70;99.90;;;;;;4977737;28;20495;-61
2023/05/03 08:13:12;;;;;;;3.60;0.90;;;11.90;99.90;;;;;;4982671;28;20050;-61
2023/05/03 08:15:40;;;;;;;3.47;1.13;;;12.00;99.90;;;;;;4981307;28;20042;-61
2023/05/03 08:18:09;;;;;;;6.75;1.20;;;11.90;99.90;;;;;;4980523;28;20110;-61
2023/05/03 08:20:36;;;;;;;5.32;1.92;;;11.90;99.90;;;;;;4961549;28;20050;-61
2023/05/03 08:23:03;;;;;;;1.95;0.85;;;11.80;99.90;;;;;;4962026;28;20097;-62
2023/05/03 08:25:31;;;;;;;3.35;0.90;;;11.70;99.90;;;;;;4984545;28;20100;-61
2023/05/03 08:27:58;;;;;;;4.53;1.00;;;11.80;99.90;;;;;;4982579;28;20058;-61
2023/05/03 08:30:25;;;;;;;5.38;1.50;;;11.80;99.90;;;;;;4982766;28;20105;-61
2023/05/03 08:32:53;;;;;;;2.83;1.10;;;11.70;99.90;;;;;;4981759;28;20065;-62
2023/05/03 08:35:20;;;;;;;4.75;1.73;;;11.80;99.90;;;;;;4983750;28;20471;-61
2023/05/03 08:37:47;;;;;;;13.13;2.53;;;11.90;99.90;;;;;;4958440;28;20459;-62
2023/05/03 08:40:15;;;;;;;6.50;2.08;;;11.90;99.90;;;;;;4979040;28;20072;-63
2023/05/03 08:42:43;;;;;;;4.57;2.10;;;11.80;99.90;;;;;;4981084;28;20051;-61
2023/05/03 08:45:13;;;;;;;9.15;1.65;;;11.70;99.90;;;;;;4963281;28;20507;-60
2023/05/03 08:47:40;;;;;;;3.25;1.08;;;11.60;99.90;;;;;;4972560;28;20617;-61
2023/05/03 08:50:10;;;;;;;2.25;1.10;;;11.60;99.90;;;;;;4975076;28;20043;-61
2023/05/03 08:52:41;;;;;;;3.08;1.20;;;11.80;99.90;;;;;;4980503;28;20121;-62
2023/05/03 08:55:08;;;;;;;;;;;11.80;99.90;;;;;;4976169;28;20448;-62
2023/05/03 08:57:35;;;;;;;3.75;1.42;;;11.70;99.90;;;;;;4976701;28;19922;-61
2023/05/03 09:00:05;;;;;;;5.53;1.70;;;11.80;99.90;;;;;;4975604;28;20047;-62
2023/05/03 09:02:35;;;;;;;6.35;1.80;;;11.80;99.90;;;;;;4973828;28;20047;-62
2023/05/03 09:05:04;;;;;;;4.25;1.70;;;11.70;99.90;;;;;;4970966;28;20101;-62
2023/05/03 09:07:32;;;;;;;6.70;1.77;;;11.80;99.90;;;;;;4977572;28;20403;-62
2023/05/03 09:10:00;;;;;;;2.95;1.40;;;11.60;99.90;;;;;;4984915;28;20562;-61
2023/05/03 09:12:39;;;;;;;2.70;1.25;;;11.70;99.90;;;;;;4983084;28;20535;-61
2023/05/03 09:15:07;;;;;;;4.50;1.55;;;11.80;99.90;;;;;;4975883;28;20042;-61
2023/05/03 09:17:34;;;;;;;7.38;2.00;;;11.90;99.90;;;;;;4960116;28;20054;-61
2023/05/03 09:20:01;;;;;;;2.80;1.50;;;12.10;99.90;;;;;;4963420;28;20118;-61
2023/05/03 09:22:33;;;;;;;6.47;2.00;;;12.10;99.90;;;;;;4974981;28;20086;-60
2023/05/03 09:25:01;;;;;;;3.20;1.75;;;12.30;99.90;;;;;;4963393;28;20078;-61
2023/05/03 09:27:28;;;;;;;3.58;1.90;;;12.20;99.90;;;;;;4987367;28;20078;-61
2023/05/03 09:29:55;;;;;;;3.33;1.67;;;12.10;99.90;;;;;;4985415;28;20054;-60
2023/05/03 09:32:23;;;;;;;4.28;1.25;;;12.30;99.90;;;;;;4987331;28;20061;-61
2023/05/03 09:34:50;;;;;;;3.65;1.40;;;12.50;99.90;;;;;;4960126;28;20061;-61
2023/05/03 09:37:17;;;;;;;5.45;1.60;;;12.50;99.00;;;;;;4974460;28;20054;-61
2023/05/03 09:39:47;;;;;;;2.47;1.25;;;12.60;99.90;;;;;;4975106;28;20114;-62
2023/05/03 09:42:16;;;;;;;4.88;1.65;;;12.60;99.70;;;;;;4975108;28;20058;-62
2023/05/03 09:44:47;;;;;;;4.93;1.50;;;12.50;99.70;;;;;;4964803;28;20076;-63
2023/05/03 09:47:15;;;;;;;3.30;1.20;;;12.40;99.90;;;;;;4983199;28;20109;-62
2023/05/03 09:49:43;;;;;;;5.63;1.27;;;12.50;99.70;;;;;;4964035;28;20098;-61
2023/05/03 09:52:10;;;;;;;3.15;1.10;;;12.60;99.40;;;;;;4969371;28;20058;-60
2023/05/03 09:54:38;;;;;;;10.55;2.03;;;12.90;99.30;;;;;;4976105;28;20038;-61
2023/05/03 09:57:07;;;;;;;3.38;1.00;;;13.00;98.80;;;;;;4964859;28;20058;-61
2023/05/03 09:59:36;;;;;;;4.43;1.65;;;12.80;99.00;;;;;;4980387;28;20122;-61
2023/05/03 10:02:04;;;;;;;3.08;1.25;;;12.70;99.00;;;;;;4960713;28;20062;-60
2023/05/03 10:04:39;;;;;;;5.53;1.38;;;12.50;99.50;;;;;;4977201;28;20051;-60
2023/05/03 10:07:14;;;;;;;6.43;1.48;;;12.60;99.40;;;;;;4955182;28;20082;-61
2023/05/03 10:09:44;;;;;;;3.35;1.40;;;12.60;99.90;;;;;;4977127;28;20049;-61
2023/05/03 10:12:15;;;;;;;4.25;1.50;;;12.70;99.70;;;;;;4981862;28;20042;-61
2023/05/03 10:14:45;;;;;;;3.67;1.52;;;12.70;99.50;;;;;;4974836;28;20138;-60
2023/05/03 10:17:17;;;;;;;4.18;1.40;;;12.90;99.80;;;;;;4978875;28;20551;-61
2023/05/03 10:19:51;;;;;;;3.33;1.35;;;13.10;99.40;;;;;;4980512;28;20055;-62
2023/05/03 10:22:18;;;;;;;3.72;1.30;;;13.00;98.50;;;;;;4973807;28;20133;-61
2023/05/03 10:25:07;;;;;;;2.88;1.30;;;13.00;99.60;;;;;;4979266;28;20561;-62
2023/05/03 10:27:42;;;;;;;3.67;1.60;;;13.10;99.00;;;;;;4970212;28;20059;-61
2023/05/03 10:30:31;;;;;;;2.83;1.38;;;13.10;99.00;;;;;;4966242;28;20086;-62
2023/05/03 10:32:58;;;;;;;5.68;1.50;;;12.90;97.90;;;;;;4972391;28;20078;-60
2023/05/03 10:35:30;;;;;;;5.60;1.70;;;13.10;99.00;;;;;;4966349;28;20046;-61
2023/05/03 10:37:57;;;;;;;3.60;1.30;;;13.30;98.70;;;;;;4955757;28;20516;-62
2023/05/03 10:40:40;;;;;;;7.00;1.77;;;13.30;98.40;;;;;;4956970;28;20051;-61
2023/05/03 10:43:41;;;;;;;5.57;1.50;;;13.20;98.30;;;;;;4976975;28;20054;-62
2023/05/03 10:46:29;;;;;;;4.10;1.30;;;13.50;98.60;;;;;;4976220;28;20098;-61
2023/05/03 10:49:15;;;;;;;2.85;1.23;;;13.40;97.80;;;;;;4979701;28;20098;-61
2023/05/03 10:51:44;;;;;;;3.05;1.42;;;13.30;97.80;;;;;;4972285;28;20046;-60
2023/05/03 10:54:11;;;;;;;5.05;1.63;;;13.40;98.30;;;;;;4977534;28;20643;-61
2023/05/03 10:56:48;;;;;;;3.80;1.40;;;13.30;98.40;;;;;;4968897;28;20121;-61
2023/05/03 10:59:16;;;;;;;5.38;1.73;;;13.20;98.20;;;;;;4974082;28;20054;-61
2023/05/03 11:01:45;;;;;;;3.45;1.40;;;13.10;97.90;;;;;;4957414;28;20055;-61
2023/05/03 11:04:18;;;;;;;5.68;1.30;;;13.20;98.60;;;;;;4982549;28;20063;-60
2023/05/03 11:06:50;;;;;;;4.38;1.50;;;13.50;99.20;;;;;;4979047;28;20046;-61
2023/05/03 11:09:17;;;;;;;4.18;1.38;;;13.80;98.30;;;;;;4960410;28;20085;-61
2023/05/03 11:11:44;;;;;;;3.95;1.77;;;14.10;98.20;;;;;;4976912;28;20043;-61
2023/05/03 11:14:12;;;;;;;4.72;1.30;;;14.40;98.00;;;;;;4960611;28;20066;-62
2023/05/03 11:16:46;;;;;;;6.63;1.40;;;14.30;97.30;;;;;;4975946;28;20527;-61
2023/05/03 11:19:14;;;;;;;4.40;1.73;;;14.40;96.80;;;;;;4962447;28;20058;-61
2023/05/03 11:21:42;;;;;;;3.72;1.65;;;14.30;96.50;;;;;;4980736;28;20570;-62
2023/05/03 11:24:09;;;;;;;4.60;1.55;;;14.60;96.40;;;;;;4978450;28;20415;-61
2023/05/03 11:26:36;;;;;;;5.90;1.60;;;14.70;95.60;;;;;;4962233;28;20649;-62
2023/05/03 11:29:03;;;;;;;3.15;1.48;;;15.20;94.90;;;;;;4976551;28;20110;-62
2023/05/03 11:31:31;;;;;;;5.00;1.40;;;15.90;94.10;;;;;;4965090;28;20061;-61
2023/05/03 11:33:59;;;;;;;5.95;1.98;;;15.80;93.10;;;;;;4979754;28;20054;-61
2023/05/03 11:36:27;;;;;;;4.70;1.75;;;15.90;94.30;;;;;;4989708;28;20038;-61
2023/05/03 11:38:54;;;;;;;5.22;1.27;;;16.00;94.60;;;;;;4967379;28;20060;-62
2023/05/03 11:41:21;;;;;;;9.88;2.75;;;15.80;94.50;;;;;;4983683;28;20578;-62
2023/05/03 11:43:49;;;;;;;4.38;1.38;;;15.60;94.20;;;;;;4984753;28;20466;-62
2023/05/03 11:46:20;;;;;;;5.95;1.33;;;15.80;94.30;;;;;;4968295;28;20102;-62
2023/05/03 11:48:47;;;;;;;4.07;1.10;;;16.10;94.00;;;;;;4983205;28;20487;-61
2023/05/03 11:51:21;;;;;;;3.10;1.02;;;16.10;94.40;;;;;;4958609;28;20067;-61
2023/05/03 11:53:48;;;;;;;3.67;1.30;;;16.00;93.40;;;;;;4962453;28;20058;-62
2023/05/03 11:56:17;;;;;;;3.35;1.00;;;15.90;94.50;;;;;;4981541;28;20047;-62
2023/05/03 11:58:52;;;;;;;3.83;1.50;;;16.30;94.40;;;;;;4965847;28;20499;-62
2023/05/03 12:01:21;;;;;;;3.58;1.20;;;16.50;94.30;;;;;;4958943;28;20105;-62
2023/05/03 12:03:48;;;;;;;6.05;1.45;;;16.30;94.00;;;;;;4953520;28;20125;-61
2023/05/03 12:06:17;;;;;;;3.25;1.35;;;16.20;93.90;;;;;;4959984;28;20514;-65
2023/05/03 12:08:44;;;;;;;4.07;1.63;;;16.10;94.90;;;;;;4981402;28;20129;-65
2023/05/03 12:11:11;;;;;;;7.75;1.63;;;16.30;94.90;;;;;;4979525;28;20515;-66
2023/05/03 12:13:39;;;;;;;3.47;1.58;;;16.50;94.10;;;;;;4980966;28;20053;-65
2023/05/03 12:16:07;;;;;;;4.28;1.70;;;16.60;93.90;;;;;;4963073;28;20059;-65
2023/05/03 12:18:51;;;;;;;5.90;1.70;;;16.90;93.50;;;;;;4962540;28;20057;-66
2023/05/03 12:21:21;;;;;;;3.58;1.58;;;17.40;93.40;;;;;;4955770;28;20055;-66
2023/05/03 12:23:50;;;;;;;3.45;1.65;;;18.40;93.20;;;;;;4978422;28;20073;-66
2023/05/03 12:26:17;;;;;;;5.00;1.50;;;18.90;92.00;;;;;;4964378;28;20066;-66
2023/05/03 12:28:45;;;;;;;4.88;2.05;;;18.80;90.60;;;;;;4980395;28;20129;-66
2023/05/03 12:31:13;;;;;;;5.45;1.60;;;19.20;91.20;;;;;;4993470;28;20506;-66
2023/05/03 12:33:40;;;;;;;5.45;1.50;;;18.50;90.00;;;;;;4975636;28;20112;-66
2023/05/03 12:36:07;;;;;;;4.03;1.30;;;18.60;91.10;;;;;;4974789;28;20414;-65
2023/05/03 12:38:36;;;;;;;2.38;1.45;;;18.20;90.70;;;;;;4976221;28;20081;-65
2023/05/03 12:41:03;;;;;;;3.45;1.73;;;18.20;91.10;;;;;;4993940;28;20047;-65
2023/05/03 12:43:29;;;;;;;3.30;1.52;;;18.60;90.90;;;;;;4976947;28;21256;-65
2023/05/03 12:46:01;;;;;;;4.03;1.58;;;18.50;90.20;;;;;;4993964;28;20113;-66
2023/05/03 12:48:28;;;;;;;6.60;1.52;;;18.10;90.20;;;;;;4994033;28;20457;-65
2023/05/03 12:50:56;;;;;;;4.60;1.85;;;17.80;90.90;;;;;;4977011;28;20054;-65
2023/05/03 12:53:23;;;;;;;4.18;1.45;;;17.40;90.60;;;;;;4994252;28;20046;-65
2023/05/03 12:55:51;;;;;;;3.08;1.52;;;17.00;91.10;;;;;;4976126;28;20494;-65
2023/05/03 12:58:18;;;;;;;6.97;1.83;;;16.70;91.40;;;;;;4993865;28;20046;-65